Amistad — WCZ9672 — position and weather

sailwx.info

Track history (hours):
 
Tides and Currents Weather Stations Pressure Air Temp Water Temp Dewpoint Dewpoint Depression Visibility Wind Speed Wind Dir Waves Ship Positions

Amistad (United States)

Ship's website: http://www.amistadvoyages.org/

Owner: AMISTAD AMERICA, New Haven, CT. More information available from US FCC via Universal Licensing System and Coast Guard Vessel Documentation Center.

Last reported at 2020-Jul-07 14:54 UTC. Time now 2020-Jul-09 05:20 UTC.
Position N 41°13' W 072°27'.

Length 39 m; draft 3.4 m.

Type: Sailing vessel. MMSI: 369547000.

Date/timePositionNaut miles runAvg speedWind from/ knotsBaromVisibWave heightAir tempDewpointWater temp
2020-Jul-07 14:54N 41°13' W 072°27'7 7.6
2020-Jul-07 14:00N 41°14' W 072°18'7 7.2
2020-Jul-07 13:00N 41°16' W 072°09'5 0.4
2020-Jul-06 23:59N 41°20' W 072°06'0 0.0
2020-Jul-06 22:29N 41°20' W 072°06'0 0.0
2020-Jul-06 18:59N 41°20' W 072°06'0 0.0
2020-Jul-06 18:29N 41°20' W 072°06'0 0.0
2020-Jul-06 17:29N 41°20' W 072°06'0 0.0
2020-Jul-06 16:59N 41°20' W 072°06'0 0.0
2020-Jul-06 11:59N 41°20' W 072°06'0 0.0
2020-Jul-06 10:59N 41°20' W 072°06'0 0.0
2020-Jul-06 09:59N 41°20' W 072°06'0 0.0
2020-Jul-06 09:29N 41°20' W 072°06'0 0.0
2020-Jul-06 08:29N 41°20' W 072°06'0 0.0
2020-Jul-06 07:59N 41°20' W 072°06'0 0.0
2020-Jul-06 04:29N 41°20' W 072°06'0 0.0
2020-Jul-06 02:59N 41°20' W 072°06'0 0.0
2020-Jul-06 01:59N 41°20' W 072°06'0 0.0
2020-Jul-06 01:29N 41°20' W 072°06'0 0.0
2020-Jul-05 21:59N 41°20' W 072°06'0 0.0
2020-Jul-05 19:59N 41°20' W 072°06'0 0.0
2020-Jul-05 15:59N 41°20' W 072°06'0 0.0
2020-Jul-05 15:29N 41°20' W 072°06'0 0.0
2020-Jul-05 12:29N 41°20' W 072°06'0 0.0
2020-Jul-05 10:29N 41°20' W 072°06'0 0.0
2020-Jul-05 05:29N 41°20' W 072°06'0 0.0
2020-Jul-05 03:59N 41°20' W 072°06'0 0.0
2020-Jul-05 02:59N 41°20' W 072°06'0 0.0
2020-Jul-05 01:59N 41°20' W 072°06'0 0.0
2020-Jul-04 22:29N 41°20' W 072°06'0 0.0
2020-Jul-04 19:59N 41°20' W 072°06'0 0.0
2020-Jul-04 19:29N 41°20' W 072°06'0 0.0
2020-Jul-04 18:29N 41°20' W 072°06'0 0.0
2020-Jul-04 12:29N 41°20' W 072°06'0 0.0
2020-Jul-04 11:29N 41°20' W 072°06'0 0.0
2020-Jul-04 02:59N 41°20' W 072°06'0 0.0
2020-Jul-04 01:59N 41°20' W 072°06'0 0.0
2020-Jul-03 21:29N 41°20' W 072°06'0 0.0
2020-Jul-03 20:59N 41°20' W 072°06'0 0.0
2020-Jul-03 17:59N 41°20' W 072°06'0 0.0
2020-Jul-03 16:29N 41°20' W 072°06'0 0.1
2020-Jul-03 16:01N 41°20' W 072°05'1 2.1
2020-Jul-03 15:30N 41°19' W 072°05'2 2.2
2020-Jul-03 14:30N 41°17' W 072°05'2 3.6
2020-Jul-03 14:00N 41°17' W 072°03'2 4.6
2020-Jul-03 13:30N 41°18' W 071°60'4 1.2
2020-Jul-03 10:17N 41°22' W 071°58'0 0.0
2020-Jul-03 09:35N 41°22' W 071°58'0 0.0
2020-Jul-03 09:11N 41°22' W 071°58'0 0.0
2020-Jul-03 08:50N 41°22' W 071°58'0 0.0
2020-Jul-03 08:29N 41°22' W 071°58'0 0.0
2020-Jul-03 06:29N 41°22' W 071°58'0 0.0
2020-Jul-03 03:59N 41°22' W 071°58'0 0.0
2020-Jul-02 20:26N 41°22' W 071°58'0 0.0
2020-Jul-02 14:14N 41°22' W 071°58'0 0.0
2020-Jul-02 08:56N 41°22' W 071°58'0 0.0
2020-Jul-02 06:23N 41°22' W 071°58'0 0.0
2020-Jul-02 01:05N 41°22' W 071°58'0 0.0
2020-Jul-01 13:02N 41°22' W 071°58'0 0.0
2020-Jul-01 05:23N 41°22' W 071°58'0 0.0
2020-Jul-01 03:53N 41°22' W 071°58'0 0.0
2020-Jul-01 02:29N 41°22' W 071°58'0 0.0
2020-Jun-30 17:56N 41°22' W 071°58'0 0.0
2020-Jun-30 16:17N 41°22' W 071°58'0 0.0
2020-Jun-30 15:29N 41°22' W 071°58'0 0.0
2020-Jun-30 13:05N 41°22' W 071°58'0 0.0
2020-Jun-30 07:29N 41°22' W 071°58'0 0.0
2020-Jun-30 06:29N 41°22' W 071°58'0 0.0
2020-Jun-30 03:17N 41°22' W 071°58'0 0.0
2020-Jun-30 02:17N 41°22' W 071°58'0 0.0
2020-Jun-29 21:23N 41°22' W 071°58'0 0.0
2020-Jun-29 13:05N 41°22' W 071°58'0 0.0
2020-Jun-29 06:44N 41°22' W 071°58'0 0.0
2020-Jun-29 05:29N 41°22' W 071°58'0 0.0
2020-Jun-29 04:05N 41°22' W 071°58'0 0.0
2020-Jun-29 00:29N 41°22' W 071°58'0 0.0
2020-Jun-28 23:11N 41°22' W 071°58'0 0.0
2020-Jun-28 18:02N 41°22' W 071°58'0 0.0
2020-Jun-28 14:29N 41°22' W 071°58'0 0.0
2020-Jun-28 13:11N 41°22' W 071°58'0 0.0
2020-Jun-28 11:59N 41°22' W 071°58'0 0.0
2020-Jun-28 07:14N 41°22' W 071°58'0 0.0
2020-Jun-28 04:53N 41°22' W 071°58'0 0.0
2020-Jun-27 22:47N 41°22' W 071°58'0 0.0
2020-Jun-27 18:47N 41°22' W 071°58'0 0.0
2020-Jun-27 16:11N 41°22' W 071°58'  
Track history (hours):
 
Tides and Currents Weather Stations Pressure Air Temp Water Temp Dewpoint Dewpoint Depression Visibility Wind Speed Wind Dir Waves Ship Positions

Amistad (United States)

Ship's website: http://www.amistadvoyages.org/

Owner: AMISTAD AMERICA, New Haven, CT. More information available from US FCC via Universal Licensing System and Coast Guard Vessel Documentation Center.

Last reported at 2020-Jul-07 14:54 UTC. Time now 2020-Jul-09 05:20 UTC.
Position N 41°13' W 072°27'.

Length 39 m; draft 3.4 m.

Type: Sailing vessel. MMSI: 369547000.

Date/timePositionNaut miles runAvg speedWind from/ knotsBaromVisibWave heightAir tempDewpointWater temp
2020-Jul-07 14:54N 41°13' W 072°27'7 7.6
2020-Jul-07 14:00N 41°14' W 072°18'7 7.2
2020-Jul-07 13:00N 41°16' W 072°09'5 0.4
2020-Jul-06 23:59N 41°20' W 072°06'0 0.0
2020-Jul-06 22:29N 41°20' W 072°06'0 0.0
2020-Jul-06 18:59N 41°20' W 072°06'0 0.0
2020-Jul-06 18:29N 41°20' W 072°06'0 0.0
2020-Jul-06 17:29N 41°20' W 072°06'0 0.0
2020-Jul-06 16:59N 41°20' W 072°06'0 0.0
2020-Jul-06 11:59N 41°20' W 072°06'0 0.0
2020-Jul-06 10:59N 41°20' W 072°06'0 0.0
2020-Jul-06 09:59N 41°20' W 072°06'0 0.0
2020-Jul-06 09:29N 41°20' W 072°06'0 0.0
2020-Jul-06 08:29N 41°20' W 072°06'0 0.0
2020-Jul-06 07:59N 41°20' W 072°06'0 0.0
2020-Jul-06 04:29N 41°20' W 072°06'0 0.0
2020-Jul-06 02:59N 41°20' W 072°06'0 0.0
2020-Jul-06 01:59N 41°20' W 072°06'0 0.0
2020-Jul-06 01:29N 41°20' W 072°06'0 0.0
2020-Jul-05 21:59N 41°20' W 072°06'0 0.0
2020-Jul-05 19:59N 41°20' W 072°06'0 0.0
2020-Jul-05 15:59N 41°20' W 072°06'0 0.0
2020-Jul-05 15:29N 41°20' W 072°06'0 0.0
2020-Jul-05 12:29N 41°20' W 072°06'0 0.0
2020-Jul-05 10:29N 41°20' W 072°06'0 0.0
2020-Jul-05 05:29N 41°20' W 072°06'0 0.0
2020-Jul-05 03:59N 41°20' W 072°06'0 0.0
2020-Jul-05 02:59N 41°20' W 072°06'0 0.0
2020-Jul-05 01:59N 41°20' W 072°06'0 0.0
2020-Jul-04 22:29N 41°20' W 072°06'0 0.0
2020-Jul-04 19:59N 41°20' W 072°06'0 0.0
2020-Jul-04 19:29N 41°20' W 072°06'0 0.0
2020-Jul-04 18:29N 41°20' W 072°06'0 0.0
2020-Jul-04 12:29N 41°20' W 072°06'0 0.0
2020-Jul-04 11:29N 41°20' W 072°06'0 0.0
2020-Jul-04 02:59N 41°20' W 072°06'0 0.0
2020-Jul-04 01:59N 41°20' W 072°06'0 0.0
2020-Jul-03 21:29N 41°20' W 072°06'0 0.0
2020-Jul-03 20:59N 41°20' W 072°06'0 0.0
2020-Jul-03 17:59N 41°20' W 072°06'0 0.0
2020-Jul-03 16:29N 41°20' W 072°06'0 0.1
2020-Jul-03 16:01N 41°20' W 072°05'1 2.1
2020-Jul-03 15:30N 41°19' W 072°05'2 2.2
2020-Jul-03 14:30N 41°17' W 072°05'2 3.6
2020-Jul-03 14:00N 41°17' W 072°03'2 4.6
2020-Jul-03 13:30N 41°18' W 071°60'4 1.2
2020-Jul-03 10:17N 41°22' W 071°58'0 0.0
2020-Jul-03 09:35N 41°22' W 071°58'0 0.0
2020-Jul-03 09:11N 41°22' W 071°58'0 0.0
2020-Jul-03 08:50N 41°22' W 071°58'0 0.0
2020-Jul-03 08:29N 41°22' W 071°58'0 0.0
2020-Jul-03 06:29N 41°22' W 071°58'0 0.0
2020-Jul-03 03:59N 41°22' W 071°58'0 0.0
2020-Jul-02 20:26N 41°22' W 071°58'0 0.0
2020-Jul-02 14:14N 41°22' W 071°58'0 0.0
2020-Jul-02 08:56N 41°22' W 071°58'0 0.0
2020-Jul-02 06:23N 41°22' W 071°58'0 0.0
2020-Jul-02 01:05N 41°22' W 071°58'0 0.0
2020-Jul-01 13:02N 41°22' W 071°58'0 0.0
2020-Jul-01 05:23N 41°22' W 071°58'0 0.0
2020-Jul-01 03:53N 41°22' W 071°58'0 0.0
2020-Jul-01 02:29N 41°22' W 071°58'0 0.0
2020-Jun-30 17:56N 41°22' W 071°58'0 0.0
2020-Jun-30 16:17N 41°22' W 071°58'0 0.0
2020-Jun-30 15:29N 41°22' W 071°58'0 0.0
2020-Jun-30 13:05N 41°22' W 071°58'0 0.0
2020-Jun-30 07:29N 41°22' W 071°58'0 0.0
2020-Jun-30 06:29N 41°22' W 071°58'0 0.0
2020-Jun-30 03:17N 41°22' W 071°58'0 0.0
2020-Jun-30 02:17N 41°22' W 071°58'0 0.0
2020-Jun-29 21:23N 41°22' W 071°58'0 0.0
2020-Jun-29 13:05N 41°22' W 071°58'0 0.0
2020-Jun-29 06:44N 41°22' W 071°58'0 0.0
2020-Jun-29 05:29N 41°22' W 071°58'0 0.0
2020-Jun-29 04:05N 41°22' W 071°58'0 0.0
2020-Jun-29 00:29N 41°22' W 071°58'0 0.0
2020-Jun-28 23:11N 41°22' W 071°58'0 0.0
2020-Jun-28 18:02N 41°22' W 071°58'0 0.0
2020-Jun-28 14:29N 41°22' W 071°58'0 0.0
2020-Jun-28 13:11N 41°22' W 071°58'0 0.0
2020-Jun-28 11:59N 41°22' W 071°58'0 0.0
2020-Jun-28 07:14N 41°22' W 071°58'0 0.0
2020-Jun-28 04:53N 41°22' W 071°58'0 0.0
2020-Jun-27 22:47N 41°22' W 071°58'0 0.0
2020-Jun-27 18:47N 41°22' W 071°58'0 0.0
2020-Jun-27 16:11N 41°22' W 071°58'  

Dump ship's entire track history